Time;durP1;ratioP1;P1;durP2;ratioP2;P2;SDS_P1;SDS_P2;PMS_P1;PMS_P2;Temp;Humidity;BMP_temperature;BMP_pressure;BME280_temperature;BME280_humidity;BME280_pressure;Samples;Min_cycle;Max_cycle;Signal;HPM_P1;HPM_P2
2022/03/05 00:00:15;;;;;;;45.92;17.20;;;;;;;0.85;100.00;102116.94;5021272;28;20044;-66
2022/03/05 00:02:41;;;;;;;43.88;16.17;;;;;;;0.56;100.00;102115.47;5025213;28;20383;-65
2022/03/05 00:05:07;;;;;;;48.00;16.33;;;;;;;0.87;100.00;102108.66;5006589;28;20657;-65
2022/03/05 00:07:32;;;;;;;52.80;17.73;;;;;;;0.94;100.00;102108.66;5024448;28;20609;-67
2022/03/05 00:09:58;;;;;;;64.80;18.40;;;;;;;0.80;100.00;102107.84;5024115;28;20033;-65
2022/03/05 00:12:24;;;;;;;49.70;18.65;;;;;;;0.62;100.00;102103.91;5023127;28;20111;-65
2022/03/05 00:14:51;;;;;;;49.63;18.50;;;;;;;0.58;100.00;102105.38;5023318;28;20061;-65
2022/03/05 00:17:16;;;;;;;45.00;15.20;;;;;;;0.54;100.00;102097.94;5022520;28;20676;-64
2022/03/05 00:19:42;;;;;;;45.22;17.88;;;;;;;0.93;100.00;102104.31;5023924;28;20125;-68
2022/03/05 00:22:07;;;;;;;47.30;16.90;;;;;;;0.80;100.00;102105.97;5023782;28;20427;-65
2022/03/05 00:24:32;;;;;;;46.17;17.55;;;;;;;0.90;100.00;102105.53;5023584;28;20498;-65
2022/03/05 00:26:58;;;;;;;53.42;16.50;;;;;;;0.66;100.00;102109.69;5023475;28;20037;-65
2022/03/05 00:29:25;;;;;;;52.30;18.05;;;;;;;0.72;100.00;102108.03;5005751;28;20208;-68
2022/03/05 00:31:50;;;;;;;48.63;17.95;;;;;;;0.74;100.00;102106.81;4989487;28;20052;-67
2022/03/05 00:34:16;;;;;;;47.85;18.02;;;;;;;0.84;100.00;102109.91;5024149;28;20049;-68
2022/03/05 00:36:41;;;;;;;46.95;17.15;;;;;;;0.83;100.00;102105.56;5023725;28;20719;-65
2022/03/05 00:39:07;;;;;;;51.50;18.33;;;;;;;0.93;100.00;102112.38;5023888;28;20045;-65
2022/03/05 00:41:32;;;;;;;45.63;17.35;;;;;;;0.94;100.00;102106.78;5005475;28;20175;-66
2022/03/05 00:43:57;;;;;;;48.33;16.85;;;;;;;0.94;100.00;102111.34;5023357;28;20041;-65
2022/03/05 00:46:23;;;;;;;60.63;19.70;;;;;;;0.65;100.00;102108.03;5021360;28;20045;-67
2022/03/05 00:48:48;;;;;;;56.08;19.05;;;;;;;0.55;100.00;102113.00;5005675;28;20120;-65
2022/03/05 00:51:14;;;;;;;52.90;18.25;;;;;;;0.67;100.00;102108.69;5023365;28;20041;-64
2022/03/05 00:53:39;;;;;;;50.20;18.15;;;;;;;0.55;100.00;102102.25;5023427;28;20134;-66
2022/03/05 00:56:05;;;;;;;51.85;18.65;;;;;;;0.58;100.00;102104.53;5023111;28;20057;-65
2022/03/05 00:58:31;;;;;;;53.70;19.45;;;;;;;0.56;100.00;102093.19;5005141;28;20130;-67
2022/03/05 01:00:56;;;;;;;54.33;18.05;;;;;;;0.57;100.00;102094.81;5005158;28;20403;-65
2022/03/05 01:03:22;;;;;;;52.60;18.25;;;;;;;0.54;100.00;102103.28;5023176;28;20592;-65
2022/03/05 01:05:48;;;;;;;52.45;19.67;;;;;;;0.53;100.00;102107.84;5023080;28;20120;-66
2022/03/05 01:08:14;;;;;;;53.22;17.67;;;;;;;0.67;100.00;102106.00;5021285;28;20049;-65
2022/03/05 01:10:40;;;;;;;56.35;19.90;;;;;;;0.55;100.00;102107.63;5023108;28;20049;-65
2022/03/05 01:13:05;;;;;;;60.83;21.42;;;;;;;0.66;100.00;102109.69;5021229;28;20049;-65
2022/03/05 01:15:30;;;;;;;61.95;19.92;;;;;;;0.57;100.00;102097.50;5022985;28;20142;-65
2022/03/05 01:17:56;;;;;;;60.55;19.13;;;;;;;0.40;100.00;102095.22;5022847;28;20049;-68
2022/03/05 01:20:21;;;;;;;62.25;20.38;;;;;;;0.37;100.00;102095.63;5015235;28;20053;-65
2022/03/05 01:22:46;;;;;;;55.80;19.63;;;;;;;0.45;100.00;102095.44;5003324;28;20069;-65
2022/03/05 01:25:12;;;;;;;56.28;20.60;;;;;;;0.43;100.00;102094.81;5003026;28;20111;-68
2022/03/05 01:27:38;;;;;;;55.78;20.17;;;;;;;0.44;100.00;102096.47;5003362;28;20128;-66
2022/03/05 01:30:04;;;;;;;59.83;19.92;;;;;;;0.44;100.00;102096.47;5002844;28;20168;-65
2022/03/05 01:32:29;;;;;;;59.88;20.17;;;;;;;0.63;100.00;102099.38;5000636;28;20041;-65
2022/03/05 01:34:55;;;;;;;50.53;19.75;;;;;;;0.63;100.00;102102.06;4983956;28;20509;-65
2022/03/05 01:37:21;;;;;;;51.60;20.70;;;;;;;0.37;100.00;102101.00;5002118;28;20038;-66
2022/03/05 01:39:47;;;;;;;59.33;19.55;;;;;;;0.59;100.00;102096.28;5002545;28;20045;-65
2022/03/05 01:42:12;;;;;;;62.97;20.27;;;;;;;0.48;100.00;102101.44;5002747;28;20042;-67
2022/03/05 01:44:38;;;;;;;63.63;21.92;;;;;;;0.41;100.00;102096.88;4984689;28;20133;-66
2022/03/05 01:47:05;;;;;;;57.92;20.42;;;;;;;0.60;100.00;102089.03;5003016;28;20048;-66
2022/03/05 01:49:32;;;;;;;64.90;22.42;;;;;;;0.63;100.00;102094.81;5002710;28;20038;-66
2022/03/05 01:51:58;;;;;;;66.38;21.27;;;;;;;0.71;100.00;102088.44;5002843;28;20120;-66
2022/03/05 01:54:24;;;;;;;57.63;20.05;;;;;;;0.80;100.00;102084.50;5000805;28;20585;-66
2022/03/05 01:56:50;;;;;;;62.20;20.17;;;;;;;0.68;100.00;102083.47;5002990;28;20071;-66
2022/03/05 01:59:15;;;;;;;63.35;20.42;;;;;;;0.45;100.00;102083.88;5002807;28;20104;-66
2022/03/05 02:01:41;;;;;;;63.72;22.42;;;;;;;0.28;100.00;102085.31;5003281;28;20041;-66
2022/03/05 02:04:06;;;;;;;58.35;21.60;;;;;;;0.45;100.00;102087.38;5003618;28;20042;-66
2022/03/05 02:06:32;;;;;;;58.70;20.20;;;;;;;0.22;100.00;102093.13;5003541;28;20068;-65
2022/03/05 02:08:58;;;;;;;66.70;21.15;;;;;;;0.44;100.00;102082.25;5003344;28;20044;-66
2022/03/05 02:11:25;;;;;;;62.90;23.05;;;;;;;0.52;100.00;102094.63;5003380;28;20104;-66
2022/03/05 02:13:51;;;;;;;64.13;20.58;;;;;;;0.54;100.00;102081.81;5002880;28;20068;-66
2022/03/05 02:16:18;;;;;;;66.88;21.23;;;;;;;0.17;100.00;102089.41;5000904;28;20034;-69
2022/03/05 02:18:49;;;;;;;52.92;19.40;;;;;;;0.32;100.00;102095.44;5003172;28;20046;-66
2022/03/05 02:21:15;;;;;;;64.55;21.33;;;;;;;0.32;100.00;102087.38;5006945;28;20457;-66
2022/03/05 02:23:40;;;;;;;73.47;22.48;;;;;;;0.40;100.00;102089.03;5000638;28;20137;-66
2022/03/05 02:26:06;;;;;;;56.70;21.75;;;;;;;0.16;100.00;102077.03;5000940;28;20037;-66
2022/03/05 02:28:33;;;;;;;62.72;21.88;;;;;;;0.27;100.00;102084.50;5002977;28;20069;-66
2022/03/05 02:30:59;;;;;;;62.08;21.15;;;;;;;0.38;100.00;102070.47;5002563;28;20041;-68
2022/03/05 02:33:25;;;;;;;65.80;21.23;;;;;;;0.32;100.00;102081.19;5001026;28;20042;-66
2022/03/05 02:35:50;;;;;;;67.65;21.75;;;;;;;-0.13;100.00;102072.84;5000930;28;20156;-66
2022/03/05 02:38:18;;;;;;;58.30;22.90;;;;;;;0.09;100.00;102079.72;5000380;28;20082;-67
2022/03/05 02:40:45;;;;;;;56.20;20.80;;;;;;;0.21;100.00;102080.75;5000784;28;20113;-66
2022/03/05 02:43:11;;;;;;;68.90;21.98;;;;;;;-0.07;100.00;102088.94;5001554;28;20133;-66
2022/03/05 02:45:37;;;;;;;70.93;23.05;;;;;;;0.32;100.00;102065.06;5000246;28;20115;-66
2022/03/05 02:48:05;;;;;;;74.57;22.23;;;;;;;0.18;100.00;102072.31;5000592;28;20487;-66
2022/03/05 02:50:31;;;;;;;62.22;21.50;;;;;;;0.10;100.00;102077.84;4967510;28;20037;-66
2022/03/05 02:52:57;;;;;;;65.68;21.48;;;;;;;0.29;100.00;102063.66;4998940;28;20701;-66
2022/03/05 02:55:24;;;;;;;68.05;21.45;;;;;;;-0.03;100.00;102068.75;4999810;28;20073;-66
2022/03/05 02:57:50;;;;;;;67.10;22.95;;;;;;;0.14;100.00;102068.38;5000638;28;20096;-66
2022/03/05 03:00:16;;;;;;;65.13;22.13;;;;;;;-0.05;100.00;102070.81;5000080;28;20895;-66
2022/03/05 03:02:45;;;;;;;68.50;23.10;;;;;;;0.10;100.00;102069.81;4998849;28;20136;-66
2022/03/05 03:05:10;;;;;;;78.05;23.83;;;;;;;-0.02;100.00;102065.03;4997326;28;20038;-67
2022/03/05 03:07:36;;;;;;;74.07;22.48;;;;;;;0.10;100.00;102067.13;4980787;28;20178;-66
2022/03/05 03:10:03;;;;;;;65.07;22.83;;;;;;;-0.06;100.00;102063.81;4998666;28;20042;-66
2022/03/05 03:12:29;;;;;;;61.53;22.67;;;;;;;-0.03;100.00;102074.13;4998471;28;20050;-66
2022/03/05 03:14:54;;;;;;;72.43;23.52;;;;;;;-0.08;100.00;102073.91;4998488;28;20112;-66
2022/03/05 03:17:20;;;;;;;62.58;20.63;;;;;;;-0.19;100.00;102073.66;4980926;28;20054;-66
2022/03/05 03:19:45;;;;;;;73.72;23.40;;;;;;;-0.11;100.00;102076.97;4999925;28;20042;-66
2022/03/05 03:22:11;;;;;;;67.70;22.15;;;;;;;-0.26;100.00;102062.94;4997787;28;20050;-66
2022/03/05 03:24:36;;;;;;;75.78;24.15;;;;;;;-0.06;100.00;102066.50;4980168;28;20052;-66
2022/03/05 03:27:02;;;;;;;73.38;22.80;;;;;;;-0.26;100.00;102062.94;4979900;28;20133;-66
2022/03/05 03:29:27;;;;;;;61.15;22.55;;;;;;;-0.48;100.00;102065.72;4980917;28;20049;-66
2022/03/05 03:31:53;;;;;;;68.78;21.20;;;;;;;-0.34;100.00;102065.78;4980944;28;20039;-66
2022/03/05 03:34:18;;;;;;;66.13;23.83;;;;;;;-0.59;100.00;102071.63;4981254;28;20483;-66
2022/03/05 03:36:44;;;;;;;64.95;22.40;;;;;;;-0.31;100.00;102070.75;4962937;28;20070;-66
2022/03/05 03:39:09;;;;;;;75.97;24.02;;;;;;;-0.29;100.00;102071.34;5003956;23;20233;-68
2022/03/05 03:41:35;;;;;;;70.97;23.42;;;;;;;-0.62;100.00;102069.38;5002404;28;20038;-68
2022/03/05 03:44:00;;;;;;;66.78;22.27;;;;;;;-0.83;100.00;102069.47;5019730;28;20136;-69
2022/03/05 03:46:25;;;;;;;74.63;23.08;;;;;;;-0.93;100.00;102072.50;5019820;28;20042;-68
2022/03/05 03:48:51;;;;;;;76.53;24.42;;;;;;;-0.83;100.00;102066.78;5023092;28;20596;-68
2022/03/05 03:51:16;;;;;;;65.53;22.95;;;;;;;-1.05;100.00;102077.56;5024164;28;20079;-69
2022/03/05 03:53:42;;;;;;;68.18;21.67;;;;;;;-0.87;100.00;102078.91;5024414;28;20080;-68
2022/03/05 03:56:07;;;;;;;74.32;24.40;;;;;;;-0.85;100.00;102075.00;5006270;28;20068;-68
2022/03/05 03:58:33;;;;;;;84.18;26.05;;;;;;;-0.72;100.00;102077.78;5024243;28;20120;-68
2022/03/05 04:00:58;;;;;;;87.40;24.85;;;;;;;-0.78;100.00;102075.06;5024112;28;20107;-69
2022/03/05 04:03:23;;;;;;;63.55;21.35;;;;;;;-0.79;100.00;102078.75;5005650;28;20081;-68
2022/03/05 04:05:49;;;;;;;82.82;23.77;;;;;;;-0.79;100.00;102089.47;5023332;28;20041;-69
2022/03/05 04:10:58;;;;;;;73.57;24.15;;;;;;;-0.70;100.00;102082.91;5023384;28;20049;-68
2022/03/05 04:13:23;;;;;;;72.10;24.02;;;;;;;-0.87;100.00;102087.78;5023389;28;20061;-68
2022/03/05 04:15:49;;;;;;;75.43;23.77;;;;;;;-1.13;100.00;102083.09;5021657;28;20102;-68
2022/03/05 04:18:14;;;;;;;79.65;22.23;;;;;;;-1.11;100.00;102086.38;5022966;28;20045;-68
2022/03/05 04:20:39;;;;;;;74.00;22.38;;;;;;;-1.12;100.00;102078.56;5022992;28;20037;-68
2022/03/05 04:23:05;;;;;;;72.05;22.67;;;;;;;-1.36;100.00;102083.31;5004452;28;20053;-68
2022/03/05 04:25:30;;;;;;;78.25;22.02;;;;;;;-1.13;100.00;102088.44;5022921;28;20171;-69
2022/03/05 04:27:56;;;;;;;73.88;24.50;;;;;;;-1.23;100.00;102091.44;5023237;28;20818;-69
2022/03/05 04:30:21;;;;;;;72.93;21.92;;;;;;;-1.07;100.00;102086.84;5023507;28;20037;-68
2022/03/05 04:32:46;;;;;;;76.35;25.52;;;;;;;-1.06;100.00;102089.31;5023251;28;20048;-68
2022/03/05 04:35:12;;;;;;;80.95;23.92;;;;;;;-1.14;100.00;102081.41;5004985;28;20084;-68
2022/03/05 04:37:38;;;;;;;89.13;25.20;;;;;;;-1.09;100.00;102087.03;5023414;28;20041;-68
2022/03/05 04:40:05;;;;;;;76.53;22.33;;;;;;;-1.22;100.00;102090.44;5023213;28;20049;-68
2022/03/05 04:42:31;;;;;;;83.82;24.63;;;;;;;-1.16;100.00;102091.50;5023416;28;20033;-68
2022/03/05 04:44:56;;;;;;;77.57;23.02;;;;;;;-1.39;100.00;102089.88;5005277;28;20056;-68
2022/03/05 04:47:22;;;;;;;80.25;23.88;;;;;;;-1.11;100.00;102097.09;5023527;28;20041;-68
2022/03/05 04:49:47;;;;;;;72.35;22.08;;;;;;;-1.19;100.00;102094.56;5023054;28;20577;-69
2022/03/05 04:52:13;;;;;;;76.75;25.33;;;;;;;-1.10;100.00;102097.94;5004761;28;20060;-68
2022/03/05 04:54:38;;;;;;;77.07;22.95;;;;;;;-1.11;100.00;102097.09;5021507;28;20042;-68
2022/03/05 04:57:04;;;;;;;85.88;24.58;;;;;;;-0.86;100.00;102099.31;5022780;28;20053;-68
2022/03/05 04:59:29;;;;;;;83.60;23.15;;;;;;;-0.99;100.00;102100.91;5021836;28;20033;-69
2022/03/05 05:01:56;;;;;;;80.05;23.90;;;;;;;-0.98;100.00;102099.88;5022910;28;20029;-68
2022/03/05 05:04:22;;;;;;;72.07;23.65;;;;;;;-1.14;100.00;102108.19;5022514;28;20037;-68
2022/03/05 05:06:47;;;;;;;75.95;22.60;;;;;;;-1.41;100.00;102105.31;5022378;28;20394;-68
2022/03/05 05:09:13;;;;;;;84.22;24.75;;;;;;;-1.18;100.00;102106.94;5004263;28;20045;-69
2022/03/05 05:11:39;;;;;;;79.03;23.85;;;;;;;-1.12;100.00;102111.50;5022439;28;20148;-68
2022/03/05 05:14:04;;;;;;;75.65;24.45;;;;;;;-1.17;100.00;102103.22;5004852;28;20043;-69
2022/03/05 05:16:29;;;;;;;72.18;23.10;;;;;;;-1.25;100.00;102108.72;5023350;28;20493;-69
2022/03/05 05:21:39;;;;;;;77.03;24.02;;;;;;;-1.08;100.00;102111.94;5004648;28;20450;-69
2022/03/05 05:24:06;;;;;;;79.40;23.83;;;;;;;-1.33;100.00;102108.88;5023681;28;20120;-69
2022/03/05 05:26:31;;;;;;;80.40;23.58;;;;;;;-1.26;100.00;102115.09;5023731;28;20038;-70
2022/03/05 05:28:56;;;;;;;80.88;24.50;;;;;;;-1.12;100.00;102116.84;5023616;28;20795;-70
2022/03/05 05:31:22;;;;;;;77.38;23.33;;;;;;;-1.17;100.00;102108.56;5023046;28;20075;-68
2022/03/05 05:33:49;;;;;;;70.53;22.70;;;;;;;-1.05;100.00;102120.41;5023158;28;20069;-67
2022/03/05 05:36:14;;;;;;;74.15;23.15;;;;;;;-0.83;100.00;102115.81;5023164;28;20644;-68
2022/03/05 05:38:40;;;;;;;77.93;24.13;;;;;;;-1.46;100.00;102118.41;5023284;28;20202;-68
2022/03/05 05:41:06;;;;;;;81.07;25.02;;;;;;;-1.62;100.00;102124.06;5022980;28;20405;-68
2022/03/05 05:43:32;;;;;;;82.50;23.27;;;;;;;-1.23;100.00;102114.72;5022741;28;20067;-69
2022/03/05 05:45:57;;;;;;;81.90;22.33;;;;;;;-1.05;100.00;102108.88;5021769;28;20132;-68
2022/03/05 05:48:22;;;;;;;85.60;25.30;;;;;;;-0.92;100.00;102108.97;5004402;28;20080;-68
2022/03/05 05:50:48;;;;;;;82.35;24.35;;;;;;;-0.86;100.00;102104.69;5022753;28;20048;-69
2022/03/05 05:53:13;;;;;;;86.72;25.50;;;;;;;-0.82;100.00;102100.56;5022272;28;20045;-69
2022/03/05 05:55:39;;;;;;;75.10;24.10;;;;;;;-0.83;100.00;102109.63;5022072;28;20041;-68
2022/03/05 05:58:04;;;;;;;87.05;25.05;;;;;;;-0.84;100.00;102102.59;5021974;28;20130;-69
2022/03/05 06:00:30;;;;;;;74.45;23.40;;;;;;;-0.80;100.00;102109.25;5021747;28;20061;-69
2022/03/05 06:02:55;;;;;;;85.38;24.80;;;;;;;-0.67;100.00;102103.94;5022355;28;20195;-68
2022/03/05 06:05:20;;;;;;;72.47;23.00;;;;;;;-0.61;100.00;102110.38;5021973;28;20041;-68
2022/03/05 06:07:46;;;;;;;84.80;25.10;;;;;;;-0.41;100.00;102113.97;5003832;28;20045;-68
2022/03/05 06:10:11;;;;;;;79.10;23.00;;;;;;;-0.58;100.00;102105.47;5021279;28;20057;-69
2022/03/05 06:12:37;;;;;;;76.53;24.08;;;;;;;-0.66;100.00;102108.31;5021708;28;20133;-68
2022/03/05 06:15:03;;;;;;;83.07;24.65;;;;;;;-0.61;100.00;102110.38;5021647;28;20052;-68
2022/03/05 06:17:29;;;;;;;69.43;21.85;;;;;;;-1.10;100.00;102114.00;5022059;28;20045;-68
2022/03/05 06:19:55;;;;;;;81.03;23.20;;;;;;;-1.23;100.00;102109.34;5021539;28;20093;-68
2022/03/05 06:22:20;;;;;;;69.25;22.08;;;;;;;-1.12;100.00;102111.50;5000148;28;20785;-67
2022/03/05 06:24:45;;;;;;;75.00;22.58;;;;;;;-1.02;100.00;102117.34;5001887;28;20042;-69
2022/03/05 06:27:11;;;;;;;69.40;22.83;;;;;;;-0.96;100.00;102115.72;5000782;28;20049;-68
2022/03/05 06:29:36;;;;;;;74.40;23.30;;;;;;;-1.03;100.00;102115.69;5001792;28;20038;-68
2022/03/05 06:32:02;;;;;;;78.90;22.75;;;;;;;-1.17;100.00;102113.94;4999971;28;20117;-68
2022/03/05 06:34:27;;;;;;;71.28;22.23;;;;;;;-1.05;100.00;102123.06;5001448;28;20103;-67
2022/03/05 06:36:55;;;;;;;78.20;22.98;;;;;;;-1.08;100.00;102115.44;5003395;28;20042;-67
2022/03/05 06:39:20;;;;;;;71.72;24.33;;;;;;;-1.00;100.00;102117.97;5011387;28;20045;-67
2022/03/05 06:41:46;;;;;;;73.88;21.60;;;;;;;-0.96;100.00;102119.25;5038929;28;20033;-69
2022/03/05 06:44:12;;;;;;;85.13;24.48;;;;;;;-0.94;100.00;102125.22;5024005;28;20088;-68
2022/03/05 06:46:37;;;;;;;83.18;23.55;;;;;;;-1.21;100.00;102128.72;5023713;28;20076;-68
2022/03/05 06:49:03;;;;;;;88.32;25.48;;;;;;;-1.28;100.00;102130.50;5025163;28;20056;-69
2022/03/05 06:51:28;;;;;;;73.00;22.23;;;;;;;-1.02;100.00;102130.75;5007397;28;20030;-68
2022/03/05 06:53:53;;;;;;;73.15;25.35;;;;;;;-0.79;100.00;102132.31;5026961;28;20120;-68
2022/03/05 06:56:19;;;;;;;78.68;24.85;;;;;;;-0.61;100.00;102135.34;5026449;28;20061;-67
2022/03/05 06:58:44;;;;;;;88.43;26.33;;;;;;;-0.49;100.00;102132.91;5027030;28;20045;-68
2022/03/05 07:01:10;;;;;;;76.40;22.90;;;;;;;-0.16;100.00;102143.78;5026818;28;20136;-68
2022/03/05 07:03:36;;;;;;;72.45;23.63;;;;;;;-0.12;100.00;102145.03;5008843;28;20130;-68
2022/03/05 07:06:01;;;;;;;70.78;22.92;;;;;;;0.14;100.00;102143.47;5025746;28;20106;-68
2022/03/05 07:08:27;;;;;;;71.47;22.13;;;;;;;0.45;100.00;102143.75;5025299;28;20212;-69
2022/03/05 07:10:53;;;;;;;72.47;23.00;;;;;;;0.63;100.00;102150.38;5025183;28;20066;-68
2022/03/05 07:13:20;;;;;;;68.82;21.52;;;;;;;0.78;100.00;102137.56;5011668;28;20138;-71
2022/03/05 07:15:47;;;;;;;65.57;22.95;;;;;;;1.02;100.00;102146.03;5024528;28;20034;-68
2022/03/05 07:18:12;;;;;;;79.20;23.25;;;;;;;0.90;100.00;102141.31;5023198;28;20080;-68
2022/03/05 07:20:38;;;;;;;73.30;22.40;;;;;;;1.46;100.00;102136.47;5022372;28;20069;-68
2022/03/05 07:23:04;;;;;;;65.85;22.08;;;;;;;1.96;100.00;102134.81;5015964;28;20044;-67
2022/03/05 07:25:36;;;;;;;68.25;21.77;;;;;;;2.18;100.00;102139.88;5025181;28;20041;-67
2022/03/05 07:28:02;;;;;;;68.80;24.05;;;;;;;2.02;100.00;102144.72;5024691;28;20081;-68
2022/03/05 07:30:28;;;;;;;57.13;21.88;;;;;;;2.45;100.00;102144.06;5025383;28;20071;-68
2022/03/05 07:32:53;;;;;;;57.83;21.05;;;;;;;1.89;100.00;102141.25;5022728;28;20037;-67
2022/03/05 07:35:18;;;;;;;64.22;23.02;;;;;;;2.20;100.00;102143.19;5024345;28;20057;-67
2022/03/05 07:37:44;;;;;;;62.45;22.85;;;;;;;2.23;100.00;102148.13;5024267;28;20524;-67
2022/03/05 07:40:10;;;;;;;61.30;22.08;;;;;;;2.78;100.00;102151.06;5023869;28;20110;-67
2022/03/05 07:42:35;;;;;;;56.13;21.10;;;;;;;2.92;100.00;102141.03;5022384;28;21149;-67
2022/03/05 07:45:00;;;;;;;66.13;21.80;;;;;;;3.27;100.00;102146.69;5023586;28;20084;-68
2022/03/05 07:47:26;;;;;;;61.78;21.85;;;;;;;2.72;100.00;102152.78;5009113;28;20068;-67
2022/03/05 07:49:51;;;;;;;60.38;21.60;;;;;;;3.07;100.00;102146.88;5024105;28;20122;-67
2022/03/05 07:52:17;;;;;;;63.85;20.63;;;;;;;2.71;100.00;102151.13;5022738;28;20128;-67
2022/03/05 07:54:42;;;;;;;60.65;22.67;;;;;;;2.86;100.00;102150.00;5024304;28;20705;-67
2022/03/05 07:57:08;;;;;;;65.00;22.38;;;;;;;2.71;100.00;102156.53;5024285;28;20516;-67
2022/03/05 07:59:35;;;;;;;65.63;22.63;;;;;;;2.07;100.00;102154.84;5024154;28;20878;-67
2022/03/05 08:02:01;;;;;;;65.38;22.83;;;;;;;1.97;100.00;102159.84;5024242;28;20057;-67
2022/03/05 08:04:26;;;;;;;67.55;23.50;;;;;;;2.22;100.00;102163.47;5024156;28;20064;-68
2022/03/05 08:06:51;;;;;;;60.63;21.83;;;;;;;2.51;100.00;102163.91;5024289;28;20030;-67
2022/03/05 08:09:17;;;;;;;62.33;23.65;;;;;;;2.92;100.00;102159.88;5024178;28;20037;-67
2022/03/05 08:11:42;;;;;;;61.80;21.77;;;;;;;2.71;100.00;102156.53;5006139;28;20064;-67
2022/03/05 08:14:08;;;;;;;78.60;26.00;;;;;;;2.63;100.00;102159.47;5023756;28;20041;-67
2022/03/05 08:16:33;;;;;;;70.78;23.65;;;;;;;2.54;100.00;102166.19;5023515;28;20132;-67
2022/03/05 08:18:59;;;;;;;65.93;22.83;;;;;;;2.38;100.00;102167.50;5021733;28;20510;-67
2022/03/05 08:21:26;;;;;;;68.80;23.25;;;;;;;2.40;100.00;102164.59;5023561;28;20056;-67
2022/03/05 08:23:52;;;;;;;66.10;23.77;;;;;;;2.37;100.00;102160.47;5023728;28;20073;-67
2022/03/05 08:26:18;;;;;;;73.05;23.45;;;;;;;2.16;100.00;102158.94;5023366;28;20140;-67
2022/03/05 08:28:44;;;;;;;62.60;21.63;;;;;;;2.42;100.00;102157.16;5005965;28;20498;-69
2022/03/05 08:31:11;;;;;;;62.38;23.70;;;;;;;2.77;100.00;102162.09;5023780;28;20669;-67
2022/03/05 08:33:38;;;;;;;70.55;24.10;;;;;;;2.96;100.00;102166.47;5021836;28;20063;-67
2022/03/05 08:36:03;;;;;;;63.20;22.17;;;;;;;3.10;100.00;102159.09;5023978;28;20052;-67
2022/03/05 08:38:31;;;;;;;54.63;20.85;;;;;;;2.70;100.00;102164.81;5023602;28;20064;-67
2022/03/05 08:40:58;;;;;;;68.50;22.50;;;;;;;2.98;100.00;102163.56;5023319;28;20128;-67
2022/03/05 08:43:23;;;;;;;70.32;23.20;;;;;;;3.04;100.00;102168.88;5023145;28;20135;-68
2022/03/05 08:45:49;;;;;;;69.55;23.60;;;;;;;3.08;100.00;102162.00;5024043;28;20566;-68
2022/03/05 08:48:14;;;;;;;63.75;22.58;;;;;;;3.30;100.00;102164.31;5022714;28;20049;-67
2022/03/05 08:50:40;;;;;;;61.63;21.80;;;;;;;3.40;100.00;102164.59;5024615;28;20229;-68
2022/03/05 08:53:05;;;;;;;64.97;22.73;;;;;;;3.53;100.00;102172.56;5024475;28;20107;-68
2022/03/05 08:55:30;;;;;;;54.47;20.70;;;;;;;3.63;100.00;102164.78;5024872;28;20110;-68
2022/03/05 08:57:56;;;;;;;61.08;21.27;;;;;;;3.20;100.00;102172.91;5023049;28;20900;-67
2022/03/05 09:00:21;;;;;;;59.35;21.65;;;;;;;3.63;100.00;102170.16;5004569;28;20048;-68
2022/03/05 09:02:47;;;;;;;68.05;25.30;;;;;;;3.89;100.00;102162.81;5020557;28;20041;-68
2022/03/05 09:05:14;;;;;;;62.88;20.67;;;;;;;3.84;100.00;102165.38;5020857;28;20048;-68
2022/03/05 09:07:43;;;;;;;63.55;22.75;;;;;;;4.15;100.00;102158.94;5021483;28;20041;-68
2022/03/05 09:10:09;;;;;;;66.75;22.35;;;;;;;3.72;100.00;102159.06;5021906;28;20042;-69
2022/03/05 09:12:35;;;;;;;69.78;22.98;;;;;;;4.11;100.00;102165.88;5022582;28;20041;-68
2022/03/05 09:15:01;;;;;;;63.58;21.35;;;;;;;3.70;100.00;102166.59;5022803;28;20052;-68
2022/03/05 09:17:26;;;;;;;59.75;22.88;;;;;;;4.08;100.00;102167.16;5022153;28;20064;-67
2022/03/05 09:19:53;;;;;;;58.33;21.48;;;;;;;4.25;100.00;102169.22;5019532;28;20830;-68
2022/03/05 09:22:19;;;;;;;55.42;21.58;;;;;;;3.92;100.00;102164.25;5020605;28;20356;-67
2022/03/05 09:24:45;;;;;;;54.22;22.33;;;;;;;4.20;100.00;102169.09;5022101;28;20052;-68
2022/03/05 09:27:10;;;;;;;61.53;20.52;;;;;;;4.45;100.00;102166.22;5021964;28;20045;-68
2022/03/05 09:29:36;;;;;;;58.88;21.98;;;;;;;4.08;100.00;102161.75;5020223;28;20044;-67
2022/03/05 09:32:02;;;;;;;60.22;22.40;;;;;;;4.32;100.00;102156.44;5003975;28;20045;-68
2022/03/05 09:34:28;;;;;;;63.85;22.23;;;;;;;4.34;100.00;102167.03;5022195;28;20099;-67
2022/03/05 09:36:54;;;;;;;66.90;23.00;;;;;;;4.67;100.00;102155.72;5021806;28;20068;-68
2022/03/05 09:39:19;;;;;;;52.70;20.33;;;;;;;4.81;100.00;102159.88;5021364;28;20056;-68
2022/03/05 09:41:45;;;;;;;59.38;21.60;;;;;;;4.53;100.00;102153.22;5021203;28;20052;-68
2022/03/05 09:44:10;;;;;;;66.93;22.45;;;;;;;4.74;100.00;102159.13;5020711;28;20635;-68
2022/03/05 09:46:36;;;;;;;58.42;21.85;;;;;;;4.28;100.00;102155.28;5020576;28;20037;-67
2022/03/05 09:49:04;;;;;;;57.58;20.98;;;;;;;4.45;100.00;102158.13;5012934;28;20471;-67
2022/03/05 09:51:30;;;;;;;59.35;20.83;;;;;;;4.67;100.00;102159.25;5020876;28;20052;-67
2022/03/05 09:53:56;;;;;;;56.10;19.42;;;;;;;4.38;100.00;102160.94;5004354;28;20234;-68
2022/03/05 09:56:22;;;;;;;60.40;23.17;;;;;;;4.40;100.00;102163.41;5020187;28;20033;-67
2022/03/05 09:58:49;;;;;;;61.55;21.75;;;;;;;4.73;100.00;102158.31;5009873;28;20039;-68
2022/03/05 10:01:15;;;;;;;52.13;20.42;;;;;;;4.60;100.00;102155.84;5019413;28;20174;-68
2022/03/05 10:03:45;;;;;;;55.72;21.80;;;;;;;4.64;100.00;102167.00;5002259;28;20124;-68
2022/03/05 10:06:26;;;;;;;66.55;22.25;;;;;;;4.75;100.00;102172.41;5020173;28;20137;-68
2022/03/05 10:08:51;;;;;;;53.85;19.63;;;;;;;5.17;100.00;102156.13;5020371;28;20049;-68
2022/03/05 10:11:18;;;;;;;60.53;21.10;;;;;;;5.10;100.00;102160.03;5020067;28;20051;-68
2022/03/05 10:13:45;;;;;;;46.42;19.55;;;;;;;5.15;100.00;102165.56;5020300;28;20467;-68
2022/03/05 10:16:32;;;;;;;52.50;21.00;;;;;;;5.19;100.00;102153.19;5020095;28;20368;-67
2022/03/05 10:19:15;;;;;;;57.42;21.27;;;;;;;5.06;100.00;102158.81;5020527;28;20052;-68
2022/03/05 10:21:57;;;;;;;55.45;19.75;;;;;;;5.11;100.00;102164.34;5020139;28;20042;-68
2022/03/05 10:24:35;;;;;;;58.00;20.90;;;;;;;5.05;100.00;102154.47;5019332;28;20072;-68
2022/03/05 10:27:01;;;;;;;56.72;22.48;;;;;;;5.07;100.00;102155.06;5020186;28;20041;-68
2022/03/05 10:29:34;;;;;;;68.57;23.27;;;;;;;5.60;100.00;102145.97;5015708;28;20033;-68
2022/03/05 10:32:05;;;;;;;61.33;21.67;;;;;;;5.76;100.00;102150.66;5019517;28;20041;-68
2022/03/05 10:34:44;;;;;;;62.58;20.08;;;;;;;5.45;100.00;102157.28;5019869;28;20057;-69
2022/03/05 10:37:10;;;;;;;54.85;20.10;;;;;;;5.17;100.00;102158.81;5020308;28;20384;-68
2022/03/05 10:39:36;;;;;;;54.60;21.00;;;;;;;5.81;100.00;102148.03;5019852;28;20065;-68
2022/03/05 10:42:03;;;;;;;62.22;22.75;;;;;;;5.95;100.00;102145.09;5020359;28;20042;-70
2022/03/05 10:44:28;;;;;;;63.15;22.52;;;;;;;5.88;100.00;102143.31;5019978;28;20040;-68
2022/03/05 10:46:59;;;;;;;57.22;21.92;;;;;;;5.81;100.00;102142.63;5020199;28;20053;-69
2022/03/05 10:49:28;;;;;;;55.70;21.20;;;;;;;6.27;100.00;102146.25;5019506;28;20052;-69
2022/03/05 10:52:02;;;;;;;62.28;23.05;;;;;;;6.88;100.00;102151.09;5019976;28;20046;-69
2022/03/05 10:54:42;;;;;;;60.88;22.98;;;;;;;6.73;100.00;102154.38;5019483;28;20049;-69
2022/03/05 10:57:21;;;;;;;53.38;21.02;;;;;;;5.78;100.00;102159.34;5019601;28;20521;-68
2022/03/05 10:59:49;;;;;;;66.03;23.67;;;;;;;6.60;100.00;102152.78;5019949;28;20121;-67
2022/03/05 11:02:16;;;;;;;68.75;22.35;;;;;;;6.90;100.00;102148.97;5001845;28;20493;-68
2022/03/05 11:04:45;;;;;;;53.97;21.70;;;;;;;6.22;100.00;102143.44;5019895;28;20041;-68
2022/03/05 11:07:20;;;;;;;57.03;21.75;;;;;;;6.03;100.00;102144.72;5020494;28;20045;-67